Time;durP1;ratioP1;P1;durP2;ratioP2;P2;SDS_P1;SDS_P2;PMS_P1;PMS_P2;Temp;Humidity;BMP_temperature;BMP_pressure;BME280_temperature;BME280_humidity;BME280_pressure;Samples;Min_cycle;Max_cycle;Signal;HPM_P1;HPM_P2
2024/01/21 00:00:44;;;;;;;2.60;1.50;;;;;;;4.27;56.09;101828.44;4966010;28;20427;-53
2024/01/21 00:03:09;;;;;;;2.88;1.17;;;;;;;4.33;56.44;101819.31;4973294;28;20050;-55
2024/01/21 00:05:35;;;;;;;1.52;1.13;;;;;;;4.31;56.23;101821.44;4972790;28;20034;-55
2024/01/21 00:08:00;;;;;;;1.52;0.95;;;;;;;4.16;57.07;101821.63;4970139;28;20035;-52
2024/01/21 00:10:26;;;;;;;1.75;1.15;;;;;;;4.31;56.08;101808.13;4984990;23;20043;-49
2024/01/21 00:12:51;;;;;;;3.28;1.98;;;;;;;4.45;55.89;101809.81;4971169;28;20097;-48
2024/01/21 00:15:17;;;;;;;2.25;0.88;;;;;;;4.28;56.71;101806.00;4971391;28;20038;-51
2024/01/21 00:17:42;;;;;;;1.77;1.40;;;;;;;4.38;55.68;101803.22;4958817;28;20326;-52
2024/01/21 00:20:08;;;;;;;4.20;1.00;;;;;;;4.20;56.65;101802.09;4953225;29;20023;-52
2024/01/21 00:22:33;;;;;;;2.03;0.90;;;;;;;4.23;55.81;101800.75;4947180;29;20043;-53
2024/01/21 00:24:58;;;;;;;1.38;1.02;;;;;;;4.33;55.47;101792.63;4953113;29;20118;-49
2024/01/21 00:27:24;;;;;;;1.02;0.98;;;;;;;4.24;55.76;101789.03;4969830;28;20098;-49
2024/01/21 00:29:49;;;;;;;2.63;1.52;;;;;;;4.26;55.20;101774.31;4951103;29;20042;-49
2024/01/21 00:32:15;;;;;;;2.92;1.17;;;;;;;4.23;55.81;101790.09;4952777;28;20063;-49
2024/01/21 00:34:40;;;;;;;1.38;0.90;;;;;;;4.26;54.50;101784.97;4959779;28;20042;-52
2024/01/21 00:37:06;;;;;;;2.03;1.08;;;;;;;4.23;55.35;101772.22;4971834;28;20031;-49
2024/01/21 00:39:33;;;;;;;0.90;0.70;;;;;;;4.12;55.64;101780.63;4960695;28;20039;-47
2024/01/21 00:41:59;;;;;;;1.30;1.20;;;;;;;4.03;55.32;101776.97;4933983;29;20126;-51
2024/01/21 00:44:25;;;;;;;3.65;1.83;;;;;;;4.20;54.42;101770.13;4933622;29;20445;-48
2024/01/21 00:46:50;;;;;;;2.22;1.20;;;;;;;4.05;55.40;101758.84;4934911;28;20485;-50
2024/01/21 00:49:16;;;;;;;1.90;1.30;;;;;;;4.02;54.98;101764.75;4952740;29;20041;-53
2024/01/21 00:51:42;;;;;;;0.85;0.85;;;;;;;4.14;53.83;101760.59;4942838;29;20043;-50
2024/01/21 00:54:07;;;;;;;2.08;1.38;;;;;;;4.01;54.28;101755.94;4952920;29;20035;-50
2024/01/21 00:56:33;;;;;;;1.85;1.65;;;;;;;3.93;54.42;101753.91;4952951;29;20027;-49
2024/01/21 00:58:58;;;;;;;2.00;1.40;;;;;;;3.93;54.86;101750.47;4949885;28;20384;-49
2024/01/21 01:01:23;;;;;;;0.80;0.80;;;;;;;3.89;54.48;101757.44;4942957;28;20054;-48
2024/01/21 01:03:49;;;;;;;3.28;0.68;;;;;;;4.00;54.05;101753.56;4954686;28;20421;-47
2024/01/21 01:06:15;;;;;;;1.00;0.93;;;;;;;3.92;54.47;101741.66;4944808;29;20027;-49
2024/01/21 01:08:40;;;;;;;1.25;0.75;;;;;;;3.95;53.88;101751.75;4960837;28;20039;-47
2024/01/21 01:11:06;;;;;;;1.08;1.08;;;;;;;3.88;54.39;101737.19;4954291;28;20042;-51
2024/01/21 01:13:32;;;;;;;0.60;0.57;;;;;;;4.04;53.94;101735.94;4954821;29;20534;-50
2024/01/21 01:16:00;;;;;;;2.50;1.33;;;;;;;3.89;54.31;101736.88;4955907;28;20031;-49
2024/01/21 01:18:26;;;;;;;1.98;1.40;;;;;;;3.93;54.31;101740.56;4953116;28;20197;-53
2024/01/21 01:20:51;;;;;;;1.55;1.20;;;;;;;3.77;54.16;101739.16;4946950;29;20042;-49
2024/01/21 01:23:17;;;;;;;5.15;2.08;;;;;;;3.66;55.33;101733.13;4953292;29;20103;-52
2024/01/21 01:25:42;;;;;;;1.00;1.00;;;;;;;3.61;55.52;101733.19;4954897;28;20027;-49
2024/01/21 01:28:08;;;;;;;1.38;1.17;;;;;;;3.86;54.44;101726.00;4938110;29;20035;-53
2024/01/21 01:30:33;;;;;;;1.70;0.63;;;;;;;3.64;54.78;101726.50;4938721;28;20407;-48
2024/01/21 01:32:59;;;;;;;0.73;0.73;;;;;;;3.64;55.01;101726.50;4955670;29;20074;-49
2024/01/21 01:35:26;;;;;;;1.38;0.90;;;;;;;3.68;54.90;101735.50;4960406;28;20030;-48
2024/01/21 01:37:51;;;;;;;1.38;0.80;;;;;;;3.65;54.90;101730.75;4947400;29;20039;-51
2024/01/21 01:40:20;;;;;;;1.85;0.93;;;;;;;3.71;53.77;101740.28;4948104;28;20035;-48
2024/01/21 01:42:54;;;;;;;1.05;1.00;;;;;;;3.67;54.37;101740.06;4954629;29;20125;-49
2024/01/21 01:45:19;;;;;;;5.07;1.48;;;;;;;3.51;54.91;101730.63;4955751;29;20166;-47
2024/01/21 01:47:45;;;;;;;1.15;1.05;;;;;;;3.54;54.98;101729.28;4955365;29;20479;-49
2024/01/21 01:50:10;;;;;;;0.82;0.82;;;;;;;3.54;54.69;101721.28;4949355;29;20432;-49
2024/01/21 01:52:36;;;;;;;1.30;1.15;;;;;;;3.52;54.62;101704.81;4942011;28;20121;-50
2024/01/21 01:55:01;;;;;;;1.48;1.33;;;;;;;3.53;54.41;101706.38;4935522;29;20048;-49
2024/01/21 01:57:27;;;;;;;1.08;0.95;;;;;;;3.56;53.85;101708.50;4935378;29;20469;-50
2024/01/21 01:59:53;;;;;;;1.10;1.10;;;;;;;3.42;54.37;101710.22;4935797;29;20039;-50
2024/01/21 02:02:20;;;;;;;1.33;1.23;;;;;;;3.47;54.44;101696.84;4935746;29;20135;-49
2024/01/21 02:04:45;;;;;;;3.17;1.42;;;;;;;3.48;53.87;101699.22;4940012;29;20455;-48
2024/01/21 02:07:11;;;;;;;1.42;0.90;;;;;;;3.33;54.29;101699.38;4935790;29;20124;-52
2024/01/21 02:09:36;;;;;;;1.27;1.20;;;;;;;3.13;54.96;101688.13;4957625;28;20459;-48
2024/01/21 02:12:02;;;;;;;0.95;0.73;;;;;;;3.34;53.95;101693.00;4961588;28;20416;-49
2024/01/21 02:14:27;;;;;;;1.60;1.25;;;;;;;3.34;54.27;101681.56;4955188;28;20034;-49
2024/01/21 02:16:52;;;;;;;1.10;0.88;;;;;;;3.43;54.56;101685.97;4966946;28;20030;-49
2024/01/21 02:19:27;;;;;;;1.15;1.05;;;;;;;3.41;54.56;101676.69;4938018;29;20052;-51
2024/01/21 02:21:53;;;;;;;2.03;1.17;;;;;;;3.43;54.69;101666.53;4935454;29;20094;-50
2024/01/21 02:24:19;;;;;;;1.23;0.98;;;;;;;3.42;54.99;101688.94;4938971;29;20125;-50
2024/01/21 02:26:44;;;;;;;3.67;1.38;;;;;;;3.54;54.48;101695.44;4960127;28;20102;-49
2024/01/21 02:29:10;;;;;;;2.47;0.75;;;;;;;3.47;54.62;101686.22;4974193;28;20035;-49
2024/01/21 02:31:35;;;;;;;1.90;1.33;;;;;;;3.24;54.75;101686.97;4971592;28;20042;-52
2024/01/21 02:34:01;;;;;;;4.57;1.10;;;;;;;3.34;54.62;101692.19;4953804;29;20049;-50
2024/01/21 02:36:26;;;;;;;0.52;0.52;;;;;;;3.30;54.94;101685.84;4959091;28;20027;-49
2024/01/21 02:38:51;;;;;;;1.67;1.45;;;;;;;3.36;55.30;101688.19;4950052;29;20104;-49
2024/01/21 02:41:17;;;;;;;1.17;0.77;;;;;;;3.33;54.85;101686.06;4946731;28;20164;-48
2024/01/21 02:43:42;;;;;;;1.20;1.02;;;;;;;3.28;55.12;101691.44;4944205;29;20122;-49
2024/01/21 02:46:08;;;;;;;2.35;1.33;;;;;;;3.21;55.31;101687.53;4938872;29;20055;-48
2024/01/21 02:48:33;;;;;;;1.02;0.65;;;;;;;3.24;55.13;101684.28;4931103;29;20125;-49
2024/01/21 02:50:58;;;;;;;0.80;0.80;;;;;;;3.26;55.06;101685.63;4948726;28;20039;-49
2024/01/21 02:53:24;;;;;;;2.45;0.85;;;;;;;3.30;54.57;101676.00;4953287;29;20034;-48
2024/01/21 02:55:49;;;;;;;3.22;1.85;;;;;;;3.09;54.82;101677.25;4940365;29;20028;-50
2024/01/21 02:58:15;;;;;;;1.80;1.13;;;;;;;2.89;55.57;101669.44;4947133;28;20044;-49
2024/01/21 03:00:40;;;;;;;1.45;0.95;;;;;;;3.12;54.76;101662.59;4912735;29;20453;-50
2024/01/21 03:03:06;;;;;;;0.88;0.88;;;;;;;3.12;55.04;101660.72;4934041;29;20492;-49
2024/01/21 03:05:31;;;;;;;1.13;1.05;;;;;;;3.01;55.79;101655.78;4951023;28;20023;-50
2024/01/21 03:07:56;;;;;;;0.73;0.73;;;;;;;3.02;55.38;101658.16;4951711;28;20507;-49
2024/01/21 03:10:22;;;;;;;1.00;0.95;;;;;;;3.03;54.84;101641.13;4953421;28;20035;-54
2024/01/21 03:12:47;;;;;;;1.00;0.88;;;;;;;3.11;54.61;101632.53;4953429;29;20046;-51
2024/01/21 03:15:13;;;;;;;1.52;1.05;;;;;;;3.11;54.47;101645.03;4953744;29;20027;-48
2024/01/21 03:17:38;;;;;;;0.73;0.73;;;;;;;3.01;54.21;101650.44;4953851;29;20038;-49
2024/01/21 03:20:05;;;;;;;0.80;0.80;;;;;;;2.91;54.92;101634.56;4964169;28;20117;-49
2024/01/21 03:22:31;;;;;;;1.30;1.20;;;;;;;2.86;54.98;101642.59;4933983;29;20039;-48
2024/01/21 03:24:58;;;;;;;1.60;1.30;;;;;;;2.96;54.66;101637.22;4934610;29;20082;-48
2024/01/21 03:27:24;;;;;;;3.15;1.80;;;;;;;2.96;54.63;101631.88;4934572;29;20035;-48
2024/01/21 03:29:49;;;;;;;0.93;0.93;;;;;;;2.91;54.41;101618.63;4945604;29;20035;-50
2024/01/21 03:32:15;;;;;;;1.25;1.10;;;;;;;2.95;53.90;101617.78;4953363;28;20126;-49
2024/01/21 03:34:42;;;;;;;1.58;1.15;;;;;;;3.01;53.36;101624.66;4951796;29;20030;-49
2024/01/21 03:37:08;;;;;;;1.52;0.95;;;;;;;2.94;53.85;101618.06;4953090;29;20039;-50
2024/01/21 03:39:34;;;;;;;4.70;1.75;;;;;;;2.86;53.74;101621.34;4934217;29;20063;-47
2024/01/21 03:41:59;;;;;;;1.95;1.45;;;;;;;2.94;53.59;101612.75;4948019;28;20433;-48
2024/01/21 03:44:24;;;;;;;0.88;0.88;;;;;;;2.89;53.85;101610.91;4938586;28;20031;-49
2024/01/21 03:46:50;;;;;;;7.47;1.45;;;;;;;2.94;53.37;101605.56;4953453;29;20484;-48
2024/01/21 03:49:15;;;;;;;1.40;0.82;;;;;;;2.83;54.00;101606.72;4950577;29;20038;-49
2024/01/21 03:51:41;;;;;;;0.80;0.80;;;;;;;2.89;53.39;101602.94;4935831;29;20035;-50
2024/01/21 03:54:06;;;;;;;2.15;1.25;;;;;;;2.91;53.18;101600.00;4953262;29;20102;-53
2024/01/21 03:56:31;;;;;;;1.27;1.17;;;;;;;2.84;52.92;101596.88;4943591;28;20035;-51
2024/01/21 03:58:57;;;;;;;1.45;1.27;;;;;;;2.80;53.44;101599.31;4948140;29;20549;-48
2024/01/21 04:01:22;;;;;;;1.60;1.48;;;;;;;2.83;53.11;101604.06;4936383;29;20623;-49
2024/01/21 04:03:48;;;;;;;1.17;1.13;;;;;;;2.80;53.20;101596.66;4940033;29;20055;-49
2024/01/21 04:06:14;;;;;;;1.25;0.93;;;;;;;2.87;52.91;101591.78;4934329;29;20103;-50
2024/01/21 04:08:39;;;;;;;3.90;1.27;;;;;;;2.80;53.45;101591.34;4936810;29;20112;-49
2024/01/21 04:11:04;;;;;;;2.33;0.70;;;;;;;2.84;53.00;101594.22;4934094;29;20035;-52
2024/01/21 04:13:30;;;;;;;1.65;1.30;;;;;;;2.77;53.06;101583.91;4933974;29;20087;-54
2024/01/21 04:15:55;;;;;;;2.60;1.50;;;;;;;2.89;53.07;101594.97;4933087;29;20091;-50
2024/01/21 04:18:21;;;;;;;1.02;0.77;;;;;;;2.90;52.68;101585.13;4943905;29;20107;-52
2024/01/21 04:20:46;;;;;;;1.30;1.20;;;;;;;2.92;51.99;101572.34;4937607;29;20035;-51
2024/01/21 04:23:11;;;;;;;0.40;0.40;;;;;;;2.83;52.14;101568.72;4937234;29;20425;-52
2024/01/21 04:25:37;;;;;;;2.17;1.05;;;;;;;2.90;52.47;101569.97;4939613;29;20035;-51
2024/01/21 04:28:03;;;;;;;0.73;0.73;;;;;;;2.89;51.77;101562.25;4944793;29;20047;-49
2024/01/21 04:30:28;;;;;;;1.20;1.02;;;;;;;2.81;52.08;101550.34;4953007;28;20097;-50
2024/01/21 04:32:54;;;;;;;0.82;0.77;;;;;;;2.88;51.88;101547.38;4939816;29;20032;-48
2024/01/21 04:35:20;;;;;;;1.45;1.10;;;;;;;2.90;51.52;101545.22;4942020;29;20043;-52
2024/01/21 04:37:48;;;;;;;0.70;0.70;;;;;;;2.97;51.23;101538.50;4933686;29;20079;-48
2024/01/21 04:40:13;;;;;;;1.58;1.13;;;;;;;2.88;51.76;101534.88;4941188;29;20416;-48
2024/01/21 04:42:39;;;;;;;1.20;0.75;;;;;;;3.01;51.25;101534.22;4950785;29;20019;-53
2024/01/21 04:45:05;;;;;;;1.40;1.30;;;;;;;3.02;51.26;101530.47;4941819;29;20412;-52
2024/01/21 04:47:30;;;;;;;1.13;1.00;;;;;;;2.98;51.45;101524.13;4943183;29;20035;-54
2024/01/21 04:49:56;;;;;;;0.28;0.28;;;;;;;2.87;50.89;101514.66;4943767;29;20042;-47
2024/01/21 04:52:21;;;;;;;1.33;0.90;;;;;;;2.94;50.43;101503.72;4946078;29;20034;-49
2024/01/21 04:54:47;;;;;;;1.98;1.33;;;;;;;3.02;50.03;101503.88;4943059;29;20050;-51
2024/01/21 04:57:12;;;;;;;0.85;0.70;;;;;;;3.12;50.05;101495.78;4953755;29;20485;-49
2024/01/21 04:59:38;;;;;;;1.27;1.17;;;;;;;3.05;49.97;101487.34;4956050;29;20050;-48
2024/01/21 05:02:03;;;;;;;1.75;1.35;;;;;;;3.05;49.68;101478.56;4952596;28;20031;-49
2024/01/21 05:04:29;;;;;;;0.63;0.63;;;;;;;3.05;50.01;101494.53;4954783;29;20042;-48
2024/01/21 05:06:54;;;;;;;0.85;0.82;;;;;;;3.26;50.02;101499.34;4952658;29;20484;-49
2024/01/21 05:09:19;;;;;;;0.65;0.60;;;;;;;3.43;48.61;101493.53;4943610;29;20039;-49
2024/01/21 05:11:45;;;;;;;0.57;0.57;;;;;;;3.32;48.89;101490.22;4942094;28;20051;-51
2024/01/21 05:14:10;;;;;;;0.82;0.82;;;;;;;3.53;48.31;101488.06;4947262;29;20036;-48
2024/01/21 05:16:41;;;;;;;0.90;0.65;;;;;;;3.55;48.21;101481.41;4949240;29;20039;-53
2024/01/21 05:19:06;;;;;;;0.95;0.73;;;;;;;3.55;49.08;101484.06;4936916;29;20087;-50
2024/01/21 05:21:32;;;;;;;1.17;0.73;;;;;;;3.53;48.03;101499.53;4941011;29;20040;-49
2024/01/21 05:23:57;;;;;;;2.38;0.50;;;;;;;3.53;47.80;101488.88;4939691;29;20078;-48
2024/01/21 05:26:23;;;;;;;1.45;1.35;;;;;;;3.65;48.17;101486.59;4922153;29;20043;-50
2024/01/21 05:28:48;;;;;;;3.30;1.48;;;;;;;3.80;46.85;101482.09;4940684;29;20571;-51
2024/01/21 05:31:14;;;;;;;1.15;0.88;;;;;;;3.66;45.92;101463.38;4949544;28;20114;-52
2024/01/21 05:33:40;;;;;;;2.17;1.05;;;;;;;3.71;45.90;101454.53;4946192;29;20031;-51
2024/01/21 05:36:06;;;;;;;1.90;0.75;;;;;;;3.70;46.86;101459.06;4949908;29;20034;-48
2024/01/21 05:38:32;;;;;;;1.75;0.95;;;;;;;3.79;46.04;101453.91;4951885;29;20045;-51
2024/01/21 05:40:57;;;;;;;1.13;0.93;;;;;;;3.73;45.91;101445.19;4944914;29;20035;-49
2024/01/21 05:43:22;;;;;;;1.13;0.75;;;;;;;3.83;46.06;101437.06;4936522;29;20040;-48
2024/01/21 05:45:48;;;;;;;1.23;0.80;;;;;;;3.94;45.43;101445.66;4936552;29;20028;-52
2024/01/21 05:48:14;;;;;;;1.15;1.05;;;;;;;3.98;45.14;101431.50;4939885;29;20039;-48
2024/01/21 05:50:39;;;;;;;4.18;1.10;;;;;;;3.97;45.88;101419.22;4943756;28;20031;-51
2024/01/21 05:53:06;;;;;;;1.55;0.88;;;;;;;3.96;45.14;101415.00;4943143;29;20027;-49
2024/01/21 05:55:32;;;;;;;0.40;0.40;;;;;;;4.09;44.96;101405.44;4940406;29;20035;-47
2024/01/21 05:57:58;;;;;;;0.85;0.85;;;;;;;3.81;45.82;101411.78;4945700;29;20166;-51
2024/01/21 06:00:24;;;;;;;0.50;0.50;;;;;;;3.83;45.45;101401.63;4953777;28;20110;-52
2024/01/21 06:02:51;;;;;;;1.33;0.82;;;;;;;3.82;45.27;101405.38;4947631;29;20122;-51
2024/01/21 06:05:17;;;;;;;0.70;0.70;;;;;;;4.01;45.40;101403.44;4942526;29;20099;-50
2024/01/21 06:07:42;;;;;;;0.90;0.70;;;;;;;3.98;45.05;101393.41;4942235;29;20484;-49
2024/01/21 06:10:08;;;;;;;0.75;0.75;;;;;;;4.21;44.12;101398.59;4941579;29;20040;-48
2024/01/21 06:12:34;;;;;;;1.08;0.95;;;;;;;4.17;44.14;101397.59;4941143;29;20087;-49
2024/01/21 06:14:59;;;;;;;0.63;0.63;;;;;;;4.13;43.58;101387.78;4955133;29;20488;-49
2024/01/21 06:17:25;;;;;;;0.82;0.63;;;;;;;4.09;44.32;101386.78;4954148;29;20027;-51
2024/01/21 06:19:50;;;;;;;1.67;0.95;;;;;;;4.09;43.75;101384.13;4954118;29;20046;-54
2024/01/21 06:22:16;;;;;;;0.77;0.77;;;;;;;4.28;43.11;101382.19;4944290;29;20051;-52
2024/01/21 06:27:15;;;;;;;0.70;0.70;;;;;;;4.27;43.11;101383.28;4936674;28;20051;-54
2024/01/21 06:29:43;;;;;;;1.27;0.65;;;;;;;4.18;44.26;101371.72;4947304;28;20039;-57
2024/01/21 06:32:09;;;;;;;5.15;0.85;;;;;;;4.15;43.15;101356.31;4950465;28;20160;-60
2024/01/21 06:34:35;;;;;;;0.30;0.30;;;;;;;4.22;42.55;101352.19;4933083;29;20606;-56
2024/01/21 06:37:00;;;;;;;1.83;0.93;;;;;;;4.18;42.61;101342.41;4929568;29;20040;-56
2024/01/21 06:39:25;;;;;;;1.13;1.00;;;;;;;4.17;43.58;101344.28;4923866;29;20039;-56
2024/01/21 06:41:51;;;;;;;0.52;0.52;;;;;;;4.28;42.13;101332.34;4921446;29;20031;-59
2024/01/21 06:44:16;;;;;;;1.27;1.17;;;;;;;4.24;41.42;101335.91;4910341;29;20516;-51
2024/01/21 06:46:42;;;;;;;0.63;0.63;;;;;;;4.27;42.30;101341.44;4933225;29;20111;-57
2024/01/21 06:49:08;;;;;;;0.95;0.60;;;;;;;4.25;42.01;101329.47;4925878;29;20116;-55
2024/01/21 06:51:46;;;;;;;0.77;0.73;;;;;;;4.28;41.46;101318.22;4910231;29;20630;-58
2024/01/21 06:54:15;;;;;;;1.27;0.70;;;;;;;4.31;41.11;101325.63;4894220;29;20750;-60
2024/01/21 06:56:40;;;;;;;0.77;0.77;;;;;;;4.30;41.58;101321.38;4894773;29;20070;-58
2024/01/21 06:59:06;;;;;;;0.70;0.70;;;;;;;4.46;41.44;101315.47;4893765;29;20094;-55
2024/01/21 07:01:31;;;;;;;0.65;0.57;;;;;;;4.45;40.97;101318.44;4921324;29;20038;-58
2024/01/21 07:03:57;;;;;;;0.82;0.50;;;;;;;4.57;40.99;101319.50;4925947;29;20043;-58
2024/01/21 07:06:22;;;;;;;0.52;0.50;;;;;;;4.62;40.64;101317.81;4927072;29;20432;-58
2024/01/21 07:08:47;;;;;;;1.38;0.82;;;;;;;4.55;41.01;101320.88;4927572;29;20039;-57
2024/01/21 07:11:13;;;;;;;0.40;0.40;;;;;;;4.51;41.02;101323.34;4923356;29;20035;-57
2024/01/21 07:13:38;;;;;;;0.40;0.40;;;;;;;4.50;40.66;101305.00;4922900;29;20036;-59
2024/01/21 07:16:04;;;;;;;0.73;0.55;;;;;;;4.59;41.14;101319.19;4924097;29;20046;-59
2024/01/21 07:18:30;;;;;;;1.02;0.43;;;;;;;4.51;41.43;101315.34;4924900;29;20114;-59
2024/01/21 07:20:55;;;;;;;0.73;0.73;;;;;;;4.52;40.60;101318.81;4933214;29;20122;-57
2024/01/21 07:23:21;;;;;;;0.63;0.63;;;;;;;4.50;41.40;101313.00;4925028;29;20063;-56
2024/01/21 07:25:47;;;;;;;1.00;0.73;;;;;;;4.50;41.05;101302.31;4925858;29;20027;-61
2024/01/21 07:28:13;;;;;;;0.82;0.80;;;;;;;4.40;41.10;101315.84;4927784;29;20094;-59
2024/01/21 07:30:39;;;;;;;0.60;0.60;;;;;;;4.42;41.54;101303.03;4927140;29;20027;-60
2024/01/21 07:33:04;;;;;;;0.70;0.70;;;;;;;4.48;41.41;101297.31;4909271;29;20038;-61
2024/01/21 07:35:29;;;;;;;0.88;0.80;;;;;;;4.52;41.41;101292.16;4924749;29;20055;-57
2024/01/21 07:37:55;;;;;;;0.65;0.65;;;;;;;4.52;41.18;101297.50;4896614;29;20039;-58
2024/01/21 07:40:20;;;;;;;1.85;1.15;;;;;;;4.56;41.07;101295.81;4893393;29;20043;-58
2024/01/21 07:42:46;;;;;;;0.45;0.45;;;;;;;4.48;40.99;101280.50;4918056;29;20032;-55
2024/01/21 07:45:12;;;;;;;0.38;0.38;;;;;;;4.48;40.60;101283.16;4930251;29;20039;-55
2024/01/21 07:47:37;;;;;;;1.02;0.93;;;;;;;4.46;40.91;101272.81;4913891;29;20069;-60
2024/01/21 07:50:04;;;;;;;0.40;0.35;;;;;;;4.50;40.58;101273.78;4927133;29;20046;-59
2024/01/21 07:52:30;;;;;;;0.95;0.50;;;;;;;4.46;40.63;101264.81;4928901;29;20156;-59
2024/01/21 07:54:56;;;;;;;1.65;0.75;;;;;;;4.48;41.37;101254.63;4925913;28;20196;-60
2024/01/21 07:57:21;;;;;;;0.57;0.57;;;;;;;4.53;41.50;101257.19;4930367;29;20036;-55
2024/01/21 07:59:47;;;;;;;2.58;1.20;;;;;;;4.51;41.13;101254.03;4920788;29;20028;-59
2024/01/21 08:02:12;;;;;;;2.15;0.88;;;;;;;4.63;41.31;101250.84;4929647;29;20065;-60
2024/01/21 08:04:37;;;;;;;0.28;0.20;;;;;;;4.65;40.76;101248.66;4913400;29;20047;-60
2024/01/21 08:07:03;;;;;;;0.40;0.40;;;;;;;4.57;40.54;101268.84;4925592;29;20031;-60
2024/01/21 08:09:29;;;;;;;2.30;1.05;;;;;;;4.67;40.90;101256.38;4926402;29;20039;-54
2024/01/21 08:11:55;;;;;;;0.45;0.45;;;;;;;4.63;40.29;101231.41;4913447;29;20046;-57
2024/01/21 08:14:21;;;;;;;0.65;0.65;;;;;;;4.63;40.13;101239.41;4906143;28;20035;-57
2024/01/21 08:16:46;;;;;;;2.95;1.42;;;;;;;4.62;40.91;101229.81;4909118;29;20108;-57
2024/01/21 08:19:12;;;;;;;2.85;1.27;;;;;;;4.61;40.72;101221.03;4911881;29;20040;-57
2024/01/21 08:21:37;;;;;;;0.73;0.68;;;;;;;4.68;41.19;101202.75;4903426;29;20480;-56
2024/01/21 08:24:03;;;;;;;1.52;0.77;;;;;;;4.68;40.46;101192.06;4927470;29;20035;-57
2024/01/21 08:26:29;;;;;;;0.90;0.73;;;;;;;4.83;40.80;101193.59;4925811;29;20046;-54
2024/01/21 08:28:54;;;;;;;0.77;0.77;;;;;;;4.88;40.28;101183.59;4923733;29;20040;-59
2024/01/21 08:31:20;;;;;;;1.63;0.98;;;;;;;4.86;39.73;101193.00;4923072;29;20040;-61
2024/01/21 08:33:46;;;;;;;1.65;0.80;;;;;;;4.95;40.13;101180.50;4921657;29;20499;-60
2024/01/21 08:36:11;;;;;;;1.42;0.60;;;;;;;4.70;40.45;101157.91;4923832;29;20048;-59
2024/01/21 08:38:38;;;;;;;0.70;0.70;;;;;;;4.85;40.93;101154.06;4925778;29;20031;-59
2024/01/21 08:41:04;;;;;;;0.50;0.50;;;;;;;4.94;40.38;101144.22;4920977;29;20039;-61
2024/01/21 08:43:29;;;;;;;1.00;0.98;;;;;;;4.92;40.83;101127.72;4923289;29;20489;-58
2024/01/21 08:45:55;;;;;;;0.90;0.60;;;;;;;4.88;40.38;101119.56;4921181;29;20031;-60
2024/01/21 08:48:20;;;;;;;0.45;0.45;;;;;;;4.92;40.01;101115.19;4920456;29;20122;-56
2024/01/21 08:50:49;;;;;;;0.70;0.70;;;;;;;5.03;39.81;101102.38;4923343;29;20035;-58
2024/01/21 08:53:14;;;;;;;0.82;0.52;;;;;;;5.11;40.27;101105.09;4925552;29;20031;-56
2024/01/21 08:55:40;;;;;;;1.20;0.63;;;;;;;5.10;39.94;101100.84;4922453;29;20528;-57
2024/01/21 08:58:05;;;;;;;0.88;0.85;;;;;;;5.15;39.88;101114.06;4920299;29;20050;-57
2024/01/21 09:00:31;;;;;;;1.83;1.45;;;;;;;4.88;39.86;101094.78;4923417;29;20047;-52
2024/01/21 09:02:56;;;;;;;1.25;0.70;;;;;;;5.05;39.79;101076.19;4925855;29;20110;-60
2024/01/21 09:05:22;;;;;;;3.55;1.60;;;;;;;5.11;40.25;101102.41;4924488;29;20159;-56
2024/01/21 09:07:47;;;;;;;0.73;0.70;;;;;;;5.04;40.06;101127.97;4903853;29;20083;-62
2024/01/21 09:10:13;;;;;;;0.65;0.55;;;;;;;5.11;40.25;101123.00;4894138;29;20047;-55
2024/01/21 09:12:39;;;;;;;1.25;0.90;;;;;;;5.28;40.41;101129.19;4886572;29;20091;-61
2024/01/21 09:15:05;;;;;;;0.65;0.65;;;;;;;5.27;40.02;101148.19;4882360;29;20046;-60
2024/01/21 09:17:32;;;;;;;1.85;0.82;;;;;;;5.40;39.85;101137.41;4891631;29;20114;-59
2024/01/21 09:19:58;;;;;;;0.65;0.65;;;;;;;5.35;39.32;101121.53;4894361;29;20044;-60
2024/01/21 09:22:23;;;;;;;1.13;0.70;;;;;;;5.44;39.65;101116.22;4891507;29;20481;-61
2024/01/21 09:24:49;;;;;;;0.70;0.70;;;;;;;5.29;40.04;101106.75;4894805;29;20099;-58
2024/01/21 09:27:15;;;;;;;0.93;0.82;;;;;;;5.53;39.52;101084.22;4892199;29;20067;-60
2024/01/21 09:29:42;;;;;;;2.63;1.27;;;;;;;5.42;39.93;101097.03;4894406;29;20124;-60
2024/01/21 09:32:10;;;;;;;0.70;0.70;;;;;;;5.44;38.89;101098.31;4896879;29;20087;-59
2024/01/21 09:34:39;;;;;;;0.60;0.60;;;;;;;5.50;39.18;101065.03;4889769;29;20393;-61
2024/01/21 09:37:05;;;;;;;1.70;1.05;;;;;;;5.44;39.19;101047.59;4895543;29;20048;-58
2024/01/21 09:39:30;;;;;;;1.55;0.52;;;;;;;5.44;39.19;101041.44;4906357;29;20050;-59
2024/01/21 09:41:57;;;;;;;0.80;0.80;;;;;;;5.25;39.28;101079.09;4923196;29;20054;-58
2024/01/21 09:44:28;;;;;;;0.70;0.70;;;;;;;5.26;40.64;101077.22;4925081;29;20044;-57
2024/01/21 09:46:58;;;;;;;1.08;0.85;;;;;;;5.53;39.82;101097.56;4920343;29;20032;-54
2024/01/21 09:49:24;;;;;;;0.77;0.77;;;;;;;5.59;39.13;101077.63;4924104;29;20504;-57
2024/01/21 09:51:50;;;;;;;1.05;1.02;;;;;;;5.59;40.18;101102.47;4928156;29;20051;-59
2024/01/21 09:54:17;;;;;;;0.52;0.52;;;;;;;5.69;39.38;101075.44;4926982;29;20080;-59
2024/01/21 09:56:43;;;;;;;0.73;0.73;;;;;;;5.73;39.18;101086.31;4924632;29;20036;-56
2024/01/21 09:59:10;;;;;;;1.20;0.77;;;;;;;5.62;39.75;101082.34;4920444;29;20034;-61
2024/01/21 10:01:40;;;;;;;2.05;1.15;;;;;;;5.54;39.68;101089.22;4916054;29;20036;-60
2024/01/21 10:04:09;;;;;;;1.00;0.77;;;;;;;5.69;39.04;101085.38;4913542;29;20208;-59
2024/01/21 10:06:35;;;;;;;0.60;0.60;;;;;;;5.80;39.21;101089.31;4921651;29;20099;-57
2024/01/21 10:09:14;;;;;;;1.60;1.10;;;;;;;5.73;40.10;101110.34;4908687;29;21044;-57
2024/01/21 10:11:40;;;;;;;0.80;0.68;;;;;;;5.60;38.84;101073.84;4909994;29;20528;-59
2024/01/21 10:14:06;;;;;;;1.10;0.73;;;;;;;5.77;39.90;101097.97;4900985;29;20028;-59
2024/01/21 10:16:32;;;;;;;1.08;1.02;;;;;;;5.78;39.91;101094.16;4910474;29;20385;-59
2024/01/21 10:18:57;;;;;;;1.30;1.05;;;;;;;5.80;40.47;101098.13;4897817;29;20280;-58
2024/01/21 10:21:23;;;;;;;1.35;0.80;;;;;;;5.88;39.97;101091.25;4910374;29;20044;-60
2024/01/21 10:23:49;;;;;;;1.20;1.00;;;;;;;5.95;39.51;101100.38;4908246;29;20046;-61
2024/01/21 10:26:14;;;;;;;2.42;1.15;;;;;;;5.91;40.48;101087.94;4906358;29;20507;-61
2024/01/21 10:28:40;;;;;;;5.15;1.08;;;;;;;6.00;39.77;101070.03;4905583;29;20107;-60
2024/01/21 10:31:08;;;;;;;0.68;0.68;;;;;;;6.06;40.33;101061.53;4906580;29;20067;-60
2024/01/21 10:33:34;;;;;;;1.20;0.90;;;;;;;6.14;39.69;101054.63;4908777;29;20074;-61
2024/01/21 10:36:01;;;;;;;0.98;0.88;;;;;;;6.08;40.00;101053.19;4905894;29;20130;-59
2024/01/21 10:38:36;;;;;;;1.58;0.63;;;;;;;6.10;38.88;101042.97;4906148;29;20521;-60
2024/01/21 10:41:03;;;;;;;1.45;0.70;;;;;;;5.93;40.45;101045.66;4905779;29;20102;-61
2024/01/21 10:43:29;;;;;;;3.58;0.77;;;;;;;5.83;39.70;101029.88;4910579;29;20340;-60
2024/01/21 10:45:57;;;;;;;0.82;0.63;;;;;;;5.91;40.36;101034.47;4890039;29;20080;-59
2024/01/21 10:48:23;;;;;;;0.40;0.40;;;;;;;6.09;39.36;101047.56;4909848;29;20043;-58
2024/01/21 10:50:51;;;;;;;0.82;0.80;;;;;;;6.22;39.81;101049.28;4908358;29;20441;-59
2024/01/21 10:53:17;;;;;;;6.63;1.00;;;;;;;6.18;40.12;101037.63;4903966;29;20119;-60
2024/01/21 10:55:44;;;;;;;0.98;0.60;;;;;;;6.27;40.35;101046.44;4909092;29;20127;-57
2024/01/21 10:58:11;;;;;;;2.28;1.13;;;;;;;6.26;39.82;101044.06;4905165;29;20059;-58
2024/01/21 11:00:39;;;;;;;0.60;0.60;;;;;;;6.36;39.56;101049.91;4904084;29;20031;-59
2024/01/21 11:03:26;;;;;;;4.00;1.05;;;;;;;6.22;39.96;101056.50;4907791;29;20050;-58
2024/01/21 11:06:04;;;;;;;4.50;1.25;;;;;;;6.30;40.37;101042.34;4906996;29;20393;-57
2024/01/21 11:08:31;;;;;;;2.15;0.80;;;;;;;6.35;40.54;101039.50;4900566;29;20036;-62
2024/01/21 11:11:08;;;;;;;2.47;0.73;;;;;;;6.30;40.47;101028.97;4907969;29;20047;-54
2024/01/21 11:13:47;;;;;;;3.13;1.20;;;;;;;6.23;41.35;101010.72;4913437;29;20032;-59
2024/01/21 11:16:34;;;;;;;0.95;0.90;;;;;;;6.38;40.54;101002.22;4895771;29;20046;-58
2024/01/21 11:19:05;;;;;;;1.55;1.00;;;;;;;6.30;41.34;101000.34;4908449;29;20055;-60
2024/01/21 11:21:32;;;;;;;0.93;0.90;;;;;;;6.37;40.61;100999.84;4910327;29;20122;-60
2024/01/21 11:24:14;;;;;;;3.47;0.88;;;;;;;6.50;40.95;101009.59;4907790;29;20054;-59
2024/01/21 11:26:42;;;;;;;0.85;0.85;;;;;;;6.54;40.41;101005.19;4903972;29;20047;-62
2024/01/21 11:29:25;;;;;;;2.75;1.45;;;;;;;6.52;40.80;100995.91;4905225;29;20067;-59
2024/01/21 11:32:02;;;;;;;0.50;0.50;;;;;;;6.42;41.18;100997.03;4905459;29;20153;-59